createdAt,value
2024-02-17T00:02:00.399Z,79.29
2024-02-17T00:05:04.238Z,80.26
2024-02-17T00:08:10.493Z,79.99
2024-02-17T00:11:16.762Z,79.52
2024-02-17T00:14:19.547Z,80.18
2024-02-17T00:17:25.287Z,80.75
2024-02-17T00:20:27.880Z,80.58
2024-02-17T00:23:32.681Z,80.56
2024-02-17T00:26:41.374Z,80.78
2024-02-17T00:29:44.203Z,81.45
2024-02-17T00:32:54.185Z,81.47
2024-02-17T00:35:58.774Z,81.38
2024-02-17T00:39:01.710Z,82.26
2024-02-17T00:42:04.511Z,81.76
2024-02-17T00:45:07.718Z,81.82
2024-02-17T00:48:10.356Z,82.37
2024-02-17T00:51:16.047Z,82.66
2024-02-17T00:54:18.912Z,82.56
2024-02-17T00:57:21.590Z,82.20
2024-02-17T01:00:24.858Z,82.06
2024-02-17T01:03:27.606Z,82.79
2024-02-17T01:06:30.686Z,82.99
2024-02-17T01:09:33.362Z,83.05
2024-02-17T01:12:36.851Z,82.46
2024-02-17T01:15:39.632Z,82.30
2024-02-17T01:18:42.732Z,82.47
2024-02-17T01:21:45.384Z,82.40
2024-02-17T01:24:48.414Z,82.62
2024-02-17T01:27:51.201Z,82.48
2024-02-17T01:30:53.904Z,82.34
2024-02-17T01:33:57.124Z,83.25
2024-02-17T01:36:59.565Z,82.96
2024-02-17T01:40:08.472Z,83.10
2024-02-17T01:43:15.143Z,83.33
2024-02-17T01:46:19.022Z,83.18
2024-02-17T01:49:25.015Z,82.82
2024-02-17T01:52:31.390Z,83.03
2024-02-17T01:55:35.388Z,82.91
2024-02-17T01:58:38.419Z,83.37
2024-02-17T02:01:45.092Z,83.61
2024-02-17T02:04:48.728Z,83.10
2024-02-17T02:07:51.279Z,83.29
2024-02-17T02:10:56.372Z,83.98
2024-02-17T02:14:14.726Z,83.79
2024-02-17T02:17:19.636Z,83.27
2024-02-17T02:20:22.959Z,83.64
2024-02-17T02:23:25.710Z,82.95
2024-02-17T02:26:28.096Z,83.31
2024-02-17T02:29:30.700Z,83.29
2024-02-17T02:32:33.060Z,83.69
2024-02-17T02:35:35.431Z,83.25
2024-02-17T02:38:39.111Z,84.19
2024-02-17T02:41:42.098Z,83.57
2024-02-17T02:44:45.154Z,83.59
2024-02-17T02:47:48.886Z,84.09
2024-02-17T02:50:52.132Z,84.24
2024-02-17T02:54:04.458Z,85.31
2024-02-17T02:57:07.644Z,85.49
2024-02-17T03:00:11.118Z,85.30
2024-02-17T03:03:14.849Z,85.47
2024-02-17T03:06:17.527Z,85.99
2024-02-17T03:09:20.788Z,85.97
2024-02-17T03:12:24.416Z,86.22
2024-02-17T03:15:28.006Z,86.84
2024-02-17T03:18:31.085Z,87.06
2024-02-17T03:21:37.649Z,87.17
2024-02-17T03:24:41.355Z,86.80
2024-02-17T03:27:43.890Z,87.32
2024-02-17T03:30:47.918Z,86.81
2024-02-17T03:33:52.074Z,86.52
2024-02-17T03:36:55.610Z,86.95
2024-02-17T03:39:58.209Z,86.56
2024-02-17T03:43:00.679Z,86.63
2024-02-17T03:46:03.020Z,86.84
2024-02-17T03:49:05.555Z,86.02
2024-02-17T03:52:09.169Z,86.25
2024-02-17T03:55:12.337Z,86.35
2024-02-17T03:58:15.432Z,86.32
2024-02-17T04:01:18.978Z,86.50
2024-02-17T04:05:00.960Z,86.93
2024-02-17T04:08:33.631Z,86.73
2024-02-17T04:11:40.096Z,86.80
2024-02-17T04:14:44.916Z,86.61
2024-02-17T04:17:47.551Z,87.20
2024-02-17T04:20:50.435Z,87.63
2024-02-17T04:23:52.899Z,87.19
2024-02-17T04:26:57.406Z,87.60
2024-02-17T04:30:04.104Z,87.54
2024-02-17T04:33:07.525Z,87.42
2024-02-17T04:36:13.018Z,87.72
2024-02-17T04:39:16.367Z,87.34
2024-02-17T04:42:19.296Z,87.45
2024-02-17T04:45:22.642Z,88.26
2024-02-17T04:48:26.166Z,88.07
2024-02-17T04:51:28.968Z,88.49
2024-02-17T04:54:32.276Z,88.65
2024-02-17T04:57:35.036Z,88.50
2024-02-17T05:00:37.982Z,88.64
2024-02-17T05:03:41.261Z,88.91
2024-02-17T05:06:48.753Z,88.66
2024-02-17T05:09:51.501Z,89.23
2024-02-17T05:12:54.111Z,89.59
2024-02-17T05:15:58.051Z,89.29
2024-02-17T05:19:00.979Z,89.60
2024-02-17T05:22:04.998Z,89.60
2024-02-17T05:25:07.470Z,89.68
2024-02-17T05:28:10.124Z,89.80
2024-02-17T05:31:29.827Z,89.74
2024-02-17T05:34:32.457Z,89.71
2024-02-17T05:37:35.003Z,90.14
2024-02-17T05:40:38.900Z,90.45
2024-02-17T05:43:41.469Z,90.44
2024-02-17T05:46:44.345Z,90.62
2024-02-17T05:49:47.465Z,90.58
2024-02-17T05:52:51.022Z,90.58
2024-02-17T05:55:53.362Z,90.22
2024-02-17T05:58:58.067Z,90.61
2024-02-17T06:02:00.459Z,90.39
2024-02-17T06:05:04.234Z,89.95
2024-02-17T06:08:07.311Z,89.38
2024-02-17T06:11:09.666Z,89.34
2024-02-17T06:14:11.998Z,88.86
2024-02-17T06:17:23.934Z,88.74
2024-02-17T06:20:45.173Z,89.01
2024-02-17T06:23:49.225Z,88.80
2024-02-17T06:26:52.068Z,89.19
2024-02-17T06:29:54.799Z,89.18
2024-02-17T06:33:02.265Z,89.22
2024-02-17T06:36:13.891Z,88.67
2024-02-17T06:39:27.604Z,88.96
2024-02-17T06:42:30.246Z,88.28
2024-02-17T06:45:39.698Z,88.48
2024-02-17T06:48:45.199Z,87.77
2024-02-17T06:51:51.141Z,87.46
2024-02-17T06:55:18.560Z,86.97
2024-02-17T07:02:28.092Z,87.01
2024-02-17T07:05:38.637Z,86.75
2024-02-17T07:08:55.188Z,85.91
2024-02-17T07:12:08.725Z,86.04
2024-02-17T07:15:27.291Z,86.10
2024-02-17T07:18:30.838Z,85.76
2024-02-17T07:21:40.817Z,85.42
2024-02-17T07:24:49.733Z,85.27
2024-02-17T07:27:59.426Z,85.41
2024-02-17T07:31:02.267Z,85.29
2024-02-17T07:34:05.096Z,84.69
2024-02-17T07:37:07.876Z,84.19
2024-02-17T07:40:15.760Z,84.51
2024-02-17T07:43:24.175Z,84.24
2024-02-17T07:46:37.373Z,84.08
2024-02-17T07:49:45.100Z,83.59
2024-02-17T07:52:47.697Z,83.42
2024-02-17T07:55:54.382Z,83.57
2024-02-17T07:59:07.456Z,83.10
2024-02-17T08:02:11.169Z,82.50
2024-02-17T08:05:25.403Z,82.38
2024-02-17T08:08:31.853Z,81.12
2024-02-17T08:11:36.847Z,81.18
2024-02-17T08:14:57.522Z,80.16
2024-02-17T08:18:03.211Z,80.40
2024-02-17T08:21:06.244Z,80.07
2024-02-17T08:24:11.581Z,77.69
2024-02-17T08:27:17.727Z,76.65
2024-02-17T08:30:20.756Z,77.03
2024-02-17T08:33:23.267Z,77.61
2024-02-17T08:36:25.736Z,77.77
2024-02-17T08:39:29.664Z,77.25
2024-02-17T08:42:32.213Z,76.61
2024-02-17T08:45:40.604Z,75.88
2024-02-17T08:48:43.255Z,73.85
2024-02-17T08:51:45.761Z,74.22
2024-02-17T08:54:48.200Z,73.32
2024-02-17T08:57:50.502Z,72.89
2024-02-17T09:00:54.331Z,72.84
2024-02-17T09:03:57.089Z,71.31
2024-02-17T09:07:01.089Z,68.46
2024-02-17T09:10:04.796Z,67.16
2024-02-17T09:13:08.957Z,67.56
2024-02-17T09:16:11.414Z,66.23
2024-02-17T09:19:14.128Z,66.17
2024-02-17T09:22:18.279Z,67.31
2024-02-17T09:25:21.347Z,67.14
2024-02-17T09:28:24.166Z,66.88
2024-02-17T09:31:26.584Z,66.59
2024-02-17T09:34:31.179Z,67.53
2024-02-17T09:37:33.763Z,67.64
2024-02-17T09:40:36.481Z,66.76
2024-02-17T09:43:39.438Z,66.25
2024-02-17T09:46:42.104Z,65.96
2024-02-17T09:49:44.988Z,65.92
2024-02-17T09:52:51.755Z,64.34
2024-02-17T09:55:54.277Z,65.73
2024-02-17T09:58:57.256Z,65.00
2024-02-17T10:02:00.009Z,65.65
2024-02-17T10:05:04.042Z,65.63
2024-02-17T10:08:08.109Z,64.11
2024-02-17T10:11:13.373Z,64.11
2024-02-17T10:14:17.858Z,64.52
2024-02-17T10:17:24.134Z,62.22
2024-02-17T10:20:26.823Z,62.27
2024-02-17T10:23:29.130Z,61.88
2024-02-17T10:26:31.558Z,61.87
2024-02-17T10:29:33.929Z,61.91
2024-02-17T10:32:37.123Z,61.19
2024-02-17T10:35:44.353Z,61.94
2024-02-17T10:38:47.552Z,61.58
2024-02-17T10:41:50.112Z,59.95
2024-02-17T10:44:52.514Z,60.05
2024-02-17T10:48:06.900Z,59.04
2024-02-17T10:51:10.139Z,59.92
2024-02-17T10:54:17.950Z,57.09
2024-02-17T10:57:24.020Z,58.10
2024-02-17T11:00:27.049Z,57.10
2024-02-17T11:03:37.960Z,56.89
2024-02-17T11:06:44.407Z,57.19
2024-02-17T11:09:47.403Z,56.72
2024-02-17T11:12:51.508Z,56.49
2024-02-17T11:16:06.261Z,55.76
2024-02-17T11:19:13.080Z,56.54
2024-02-17T11:22:18.649Z,55.47
2024-02-17T11:25:35.865Z,53.80
2024-02-17T11:28:38.772Z,54.19
2024-02-17T11:31:43.226Z,54.85
2024-02-17T11:34:47.931Z,54.73
2024-02-17T11:37:55.156Z,54.66
2024-02-17T11:40:59.567Z,53.98
2024-02-17T11:44:02.432Z,53.63
2024-02-17T11:47:05.003Z,53.78
2024-02-17T11:50:12.729Z,53.40
2024-02-17T11:53:16.179Z,53.47
2024-02-17T11:56:19.136Z,52.84
2024-02-17T11:59:22.411Z,52.67
2024-02-17T12:02:25.392Z,52.50
2024-02-17T12:05:28.052Z,52.38
2024-02-17T12:08:32.189Z,52.71
2024-02-17T12:11:36.577Z,52.64
2024-02-17T12:14:39.123Z,52.51
2024-02-17T12:17:46.123Z,52.08
2024-02-17T12:20:51.782Z,52.75
2024-02-17T12:23:59.004Z,52.11
2024-02-17T12:27:02.026Z,51.89
2024-02-17T12:30:08.113Z,52.58
2024-02-17T12:33:11.896Z,52.32
2024-02-17T12:36:23.847Z,51.47
2024-02-17T12:39:27.650Z,50.83
2024-02-17T12:42:30.898Z,50.52
2024-02-17T12:45:34.225Z,50.67
2024-02-17T12:48:40.438Z,51.09
2024-02-17T12:51:48.945Z,51.17
2024-02-17T12:54:51.914Z,50.94
2024-02-17T12:57:55.196Z,50.67
2024-02-17T13:01:00.405Z,50.83
2024-02-17T13:04:03.196Z,50.79
2024-02-17T13:07:06.085Z,50.72
2024-02-17T13:10:10.443Z,50.75
2024-02-17T13:13:12.888Z,51.13
2024-02-17T13:16:16.617Z,51.10
2024-02-17T13:19:20.033Z,51.26
2024-02-17T13:22:24.796Z,51.95
2024-02-17T13:25:27.320Z,53.15
2024-02-17T13:28:31.315Z,53.12
2024-02-17T13:31:35.310Z,50.67
2024-02-17T13:34:40.424Z,50.68
2024-02-17T13:37:46.669Z,50.58
2024-02-17T13:40:56.957Z,50.98
2024-02-17T13:44:09.960Z,50.88
2024-02-17T13:47:15.650Z,51.13
2024-02-17T13:50:18.171Z,51.62
2024-02-17T13:53:21.134Z,52.97
2024-02-17T13:56:28.220Z,55.82
2024-02-17T13:59:38.958Z,58.56
2024-02-17T14:02:43.916Z,61.22
2024-02-17T14:05:47.062Z,63.03
2024-02-17T14:08:59.841Z,64.67
2024-02-17T14:12:05.575Z,67.29
2024-02-17T14:15:09.669Z,66.83
2024-02-17T14:18:16.115Z,67.42
2024-02-17T14:21:21.060Z,68.06
2024-02-17T14:24:24.110Z,68.73
2024-02-17T14:27:29.305Z,69.45
2024-02-17T14:30:38.361Z,71.34
2024-02-17T14:33:49.742Z,70.41
2024-02-17T14:36:53.038Z,71.79
2024-02-17T14:39:59.604Z,72.37
2024-02-17T14:43:02.602Z,73.61
2024-02-17T14:46:05.566Z,72.92
2024-02-17T14:49:08.814Z,73.58
2024-02-17T14:52:11.847Z,74.51
2024-02-17T14:55:14.737Z,74.69
2024-02-17T14:58:17.374Z,76.56
2024-02-17T15:01:20.154Z,75.51
2024-02-17T15:04:22.923Z,75.52
2024-02-17T15:07:25.552Z,74.91
2024-02-17T15:10:31.728Z,75.70
2024-02-17T15:13:35.417Z,76.80
2024-02-17T15:16:39.714Z,78.79
2024-02-17T15:19:43.290Z,77.12
2024-02-17T15:22:47.180Z,76.79
2024-02-17T15:25:49.860Z,76.14
2024-02-17T15:28:52.921Z,75.51
2024-02-17T15:31:56.199Z,76.36
2024-02-17T15:34:59.627Z,78.22
2024-02-17T15:38:07.592Z,78.62
2024-02-17T15:41:11.268Z,79.03
2024-02-17T15:44:14.257Z,78.75
2024-02-17T15:47:16.597Z,77.54
2024-02-17T15:50:19.059Z,77.42
2024-02-17T15:53:29.007Z,77.01
2024-02-17T15:56:31.570Z,77.35
2024-02-17T15:59:34.424Z,78.02
2024-02-17T16:02:37.956Z,77.29
2024-02-17T16:05:40.744Z,78.05
2024-02-17T16:08:43.138Z,78.07
2024-02-17T16:11:47.558Z,76.62
2024-02-17T16:14:50.022Z,77.05
2024-02-17T16:17:54.612Z,78.12
2024-02-17T16:21:03.492Z,78.12
2024-02-17T16:24:09.045Z,77.27
2024-02-17T16:27:12.183Z,77.77
2024-02-17T16:30:14.782Z,78.32
2024-02-17T16:33:17.591Z,77.92
2024-02-17T16:36:20.172Z,78.81
2024-02-17T16:39:22.982Z,78.03
2024-02-17T16:42:26.863Z,77.30
2024-02-17T16:45:33.945Z,76.91
2024-02-17T16:48:37.972Z,77.84
2024-02-17T16:51:44.708Z,77.75
2024-02-17T16:54:48.370Z,78.77
2024-02-17T16:57:51.033Z,79.35
2024-02-17T17:00:53.644Z,79.84
2024-02-17T17:03:56.508Z,79.79
2024-02-17T17:07:09.074Z,80.43
2024-02-17T17:10:11.877Z,80.85
2024-02-17T17:13:17.500Z,81.25
2024-02-17T17:16:19.783Z,81.80
2024-02-17T17:19:23.013Z,82.74
2024-02-17T17:22:38.854Z,82.86
2024-02-17T17:25:46.339Z,82.62
2024-02-17T17:28:50.295Z,83.24
2024-02-17T17:31:53.463Z,82.67
2024-02-17T17:34:56.378Z,83.01
2024-02-17T17:38:08.330Z,83.29
2024-02-17T17:41:10.773Z,83.03
2024-02-17T17:44:17.541Z,83.30
2024-02-17T17:47:21.326Z,83.39
2024-02-17T17:50:25.332Z,83.54
2024-02-17T17:53:35.777Z,83.06
2024-02-17T17:56:44.476Z,83.88
2024-02-17T17:59:58.705Z,83.53
2024-02-17T18:03:03.717Z,83.55
2024-02-17T18:06:31.467Z,83.88
2024-02-17T18:09:51.359Z,84.15
2024-02-17T18:12:55.229Z,82.69
2024-02-17T18:16:02.279Z,81.45
2024-02-17T18:19:06.874Z,80.84
2024-02-17T18:22:12.116Z,81.17
2024-02-17T18:25:18.978Z,80.97
2024-02-17T18:28:21.786Z,81.55
2024-02-17T18:31:23.994Z,81.59
2024-02-17T18:34:30.644Z,82.08
2024-02-17T18:37:38.859Z,82.25
2024-02-17T18:40:44.195Z,82.13
2024-02-17T18:43:47.165Z,82.40
2024-02-17T18:46:59.083Z,82.53
2024-02-17T18:50:02.436Z,82.51
2024-02-17T18:53:05.751Z,83.56
2024-02-17T18:56:10.945Z,82.97
2024-02-17T18:59:19.318Z,82.85
2024-02-17T19:02:31.230Z,82.82
2024-02-17T19:05:44.196Z,83.66
2024-02-17T19:09:01.461Z,82.83
2024-02-17T19:12:04.680Z,83.81
2024-02-17T19:15:07.856Z,84.24
2024-02-17T19:18:10.668Z,84.19
2024-02-17T19:21:16.352Z,84.53
2024-02-17T19:24:19.165Z,85.22
2024-02-17T19:27:21.950Z,84.89
2024-02-17T19:30:25.462Z,85.67
2024-02-17T19:33:29.276Z,86.16
2024-02-17T19:36:31.760Z,86.64
2024-02-17T19:39:35.990Z,85.31
2024-02-17T19:42:38.325Z,84.35
2024-02-17T19:45:40.469Z,85.34
2024-02-17T19:48:42.898Z,83.87
2024-02-17T19:51:46.557Z,83.92
2024-02-17T19:54:50.546Z,84.89
2024-02-17T19:57:55.494Z,84.97
2024-02-17T20:00:58.644Z,85.14
2024-02-17T20:04:01.132Z,84.23
2024-02-17T20:07:03.724Z,84.99
2024-02-17T20:10:09.508Z,84.13
2024-02-17T20:13:12.107Z,84.36
2024-02-17T20:16:14.626Z,84.56
2024-02-17T20:19:18.100Z,85.22
2024-02-17T20:22:24.338Z,85.95
2024-02-17T20:25:31.715Z,85.98
2024-02-17T20:28:34.273Z,85.98
2024-02-17T20:31:36.919Z,85.09
2024-02-17T20:34:39.585Z,84.99
2024-02-17T20:37:42.092Z,85.16
2024-02-17T20:40:44.502Z,84.58
2024-02-17T20:43:47.199Z,84.48
2024-02-17T20:46:50.572Z,84.03
2024-02-17T20:49:54.379Z,84.72
2024-02-17T20:52:59.493Z,84.58
2024-02-17T20:56:09.738Z,84.96
2024-02-17T20:59:22.019Z,84.82
2024-02-17T21:06:10.365Z,84.73
2024-02-17T21:09:13.291Z,84.86
2024-02-17T21:12:15.805Z,85.13
2024-02-17T21:15:21.733Z,84.27
2024-02-17T21:18:24.956Z,82.82
2024-02-17T21:21:30.659Z,83.18
2024-02-17T21:24:36.102Z,83.93
2024-02-17T21:27:38.691Z,84.04
2024-02-17T21:30:42.633Z,85.31
2024-02-17T21:33:45.966Z,85.35
2024-02-17T21:37:24.593Z,85.85
2024-02-17T21:40:45.184Z,86.13
2024-02-17T21:43:54.896Z,85.90
2024-02-17T21:46:57.754Z,83.39
2024-02-17T21:50:08.019Z,84.30
2024-02-17T21:53:13.629Z,84.32
2024-02-17T22:03:55.011Z,84.96
2024-02-17T22:07:10.655Z,84.61
2024-02-17T22:10:13.792Z,83.47
2024-02-17T22:13:24.040Z,83.66
2024-02-17T22:16:35.794Z,83.41
2024-02-17T22:19:43.520Z,83.14
2024-02-17T22:22:48.106Z,83.85
2024-02-17T22:25:54.693Z,83.95
2024-02-17T22:29:00.704Z,83.91
2024-02-17T22:32:05.764Z,84.46
2024-02-17T22:35:10.170Z,84.85
2024-02-17T22:38:20.159Z,85.69
2024-02-17T22:41:23.346Z,85.68
2024-02-17T22:44:27.182Z,86.22
2024-02-17T22:47:40.668Z,85.29
2024-02-17T22:50:43.714Z,83.83
2024-02-17T22:54:10.471Z,84.31
2024-02-17T22:57:29.332Z,83.33
2024-02-17T23:00:32.954Z,83.03
2024-02-17T23:03:35.513Z,82.05
2024-02-17T23:06:54.225Z,82.15
2024-02-17T23:09:58.830Z,82.07
2024-02-17T23:13:02.336Z,81.58
2024-02-17T23:16:13.120Z,82.23
2024-02-17T23:19:22.873Z,81.29
2024-02-17T23:22:31.929Z,81.18
2024-02-17T23:25:39.507Z,81.70
2024-02-17T23:28:42.579Z,81.35
2024-02-17T23:31:45.861Z,81.77
2024-02-17T23:34:49.301Z,82.48
2024-02-17T23:37:52.507Z,82.82
2024-02-17T23:41:01.834Z,82.72
2024-02-17T23:44:05.961Z,82.43
2024-02-17T23:47:09.949Z,83.25
2024-02-17T23:50:14.943Z,84.03
2024-02-17T23:53:20.985Z,84.78
2024-02-17T23:56:26.930Z,84.75
2024-02-17T23:59:31.842Z,85.04
